createdAt,value
2018-03-31T00:00:12.207Z,4.25
2018-03-31T00:02:39.767Z,4.35
2018-03-31T00:05:07.334Z,5.20
2018-03-31T00:07:35.619Z,5.10
2018-03-31T00:10:03.174Z,5.07
2018-03-31T00:12:30.725Z,4.70
2018-03-31T00:14:58.276Z,4.75
2018-03-31T00:17:26.518Z,4.40
2018-03-31T00:19:54.058Z,4.80
2018-03-31T00:22:25.579Z,5.15
2018-03-31T00:24:53.123Z,4.28
2018-03-31T00:27:20.654Z,5.00
2018-03-31T00:29:48.195Z,4.85
2018-03-31T00:32:15.743Z,4.30
2018-03-31T00:34:43.268Z,4.30
2018-03-31T00:37:10.826Z,4.72
2018-03-31T00:39:38.409Z,5.90
2018-03-31T00:42:05.954Z,5.28
2018-03-31T00:47:08.049Z,6.12
2018-03-31T00:49:35.584Z,5.07
2018-03-31T00:52:03.889Z,4.80
2018-03-31T00:54:31.425Z,5.03
2018-03-31T00:56:59.774Z,4.20
2018-03-31T00:59:27.320Z,5.10
2018-03-31T01:01:54.862Z,5.07
2018-03-31T01:04:22.390Z,5.62
2018-03-31T01:06:49.935Z,4.50
2018-03-31T01:09:17.457Z,3.95
2018-03-31T01:11:44.996Z,4.60
2018-03-31T01:14:12.551Z,4.72
2018-03-31T01:16:40.133Z,6.57
2018-03-31T01:19:07.652Z,5.12
2018-03-31T01:21:35.307Z,4.78
2018-03-31T01:24:02.839Z,4.53
2018-03-31T01:26:30.380Z,4.95
2018-03-31T01:28:57.918Z,5.70
2018-03-31T01:31:25.462Z,4.60
2018-03-31T01:33:53.754Z,5.10
2018-03-31T01:36:22.043Z,4.70
2018-03-31T01:38:49.610Z,5.82
2018-03-31T01:41:17.132Z,5.68
2018-03-31T01:43:45.461Z,4.47
2018-03-31T01:46:12.992Z,5.47
2018-03-31T01:48:41.336Z,6.00
2018-03-31T01:51:08.855Z,6.10
2018-03-31T01:53:36.392Z,5.75
2018-03-31T01:56:04.672Z,7.15
2018-03-31T01:58:32.967Z,7.03
2018-03-31T02:01:00.504Z,6.90
2018-03-31T02:03:28.084Z,7.80
2018-03-31T02:05:55.623Z,5.87
2018-03-31T02:08:23.914Z,7.62
2018-03-31T02:10:52.316Z,6.22
2018-03-31T02:13:19.906Z,6.37
2018-03-31T02:15:47.450Z,7.80
2018-03-31T02:18:14.970Z,6.75
2018-03-31T02:20:43.268Z,8.10
2018-03-31T02:23:10.828Z,9.32
2018-03-31T02:25:38.353Z,8.23
2018-03-31T02:28:05.910Z,6.95
2018-03-31T02:30:33.488Z,5.75
2018-03-31T02:33:01.807Z,6.78
2018-03-31T02:35:29.363Z,6.45
2018-03-31T02:37:56.904Z,7.28
2018-03-31T02:40:25.213Z,8.25
2018-03-31T02:42:52.745Z,11.27
2018-03-31T02:45:21.116Z,11.15
2018-03-31T02:47:48.692Z,9.15
2018-03-31T02:50:16.212Z,9.15
2018-03-31T02:52:43.763Z,9.75
2018-03-31T02:55:11.330Z,8.40
2018-03-31T02:57:38.842Z,9.95
2018-03-31T03:00:06.374Z,9.88
2018-03-31T03:02:33.947Z,8.88
2018-03-31T03:05:02.342Z,9.57
2018-03-31T03:07:29.906Z,8.70
2018-03-31T03:09:57.436Z,8.75
2018-03-31T03:12:24.992Z,8.48
2018-03-31T03:14:53.284Z,10.77
2018-03-31T03:17:21.587Z,9.77
2018-03-31T03:19:49.130Z,9.15
2018-03-31T03:22:17.444Z,8.70
2018-03-31T03:24:45.003Z,11.05
2018-03-31T03:27:12.551Z,10.10
2018-03-31T03:29:40.087Z,9.52
2018-03-31T03:32:08.433Z,11.80
2018-03-31T03:34:35.956Z,10.50
2018-03-31T03:37:03.697Z,9.73
2018-03-31T03:39:31.238Z,9.55
2018-03-31T03:41:58.779Z,11.30
2018-03-31T03:44:26.318Z,12.23
2018-03-31T03:46:53.850Z,16.37
2018-03-31T03:49:22.145Z,13.25
2018-03-31T03:51:49.703Z,11.93
2018-03-31T03:54:17.245Z,12.98
2018-03-31T03:56:45.623Z,11.90
2018-03-31T03:59:13.954Z,12.13
2018-03-31T04:01:41.515Z,11.00
2018-03-31T04:04:09.079Z,11.98
2018-03-31T04:06:36.617Z,13.27
2018-03-31T04:09:04.228Z,15.30
2018-03-31T04:11:31.750Z,14.65
2018-03-31T04:13:59.339Z,17.00
2018-03-31T04:16:26.901Z,15.98
2018-03-31T04:18:54.447Z,13.00
2018-03-31T04:21:21.986Z,14.77
2018-03-31T04:23:49.542Z,11.43
2018-03-31T04:26:17.083Z,12.05
2018-03-31T04:28:45.385Z,12.00
2018-03-31T04:31:12.951Z,13.38
2018-03-31T04:33:40.496Z,15.32
2018-03-31T04:36:08.039Z,16.25
2018-03-31T04:38:36.359Z,16.95
2018-03-31T04:41:03.894Z,11.95
2018-03-31T04:43:31.683Z,15.55
2018-03-31T04:45:59.255Z,14.05
2018-03-31T04:48:27.591Z,14.10
2018-03-31T04:50:55.096Z,15.32
2018-03-31T04:53:22.685Z,14.55
2018-03-31T04:55:50.208Z,15.85
2018-03-31T04:58:17.750Z,19.27
2018-03-31T05:00:45.991Z,18.77
2018-03-31T05:03:13.539Z,17.85
2018-03-31T05:05:41.110Z,16.50
2018-03-31T05:08:08.655Z,16.90
2018-03-31T05:10:36.179Z,15.85
2018-03-31T05:13:03.851Z,17.55
2018-03-31T05:15:31.384Z,17.70
2018-03-31T05:17:59.696Z,19.12
2018-03-31T05:20:27.227Z,15.77
2018-03-31T05:22:54.820Z,18.12
2018-03-31T05:25:22.357Z,17.70
2018-03-31T05:27:50.032Z,17.73
2018-03-31T05:30:17.580Z,17.67
2018-03-31T05:32:45.206Z,18.80
2018-03-31T05:35:13.511Z,17.55
2018-03-31T05:37:41.062Z,16.80
2018-03-31T05:40:09.368Z,15.25
2018-03-31T05:42:36.907Z,15.77
2018-03-31T05:45:05.232Z,18.37
2018-03-31T05:47:32.764Z,19.52
2018-03-31T05:50:00.309Z,17.75
2018-03-31T05:52:28.702Z,18.00
2018-03-31T05:54:56.246Z,17.27
2018-03-31T05:57:24.560Z,21.40
2018-03-31T05:59:52.099Z,19.02
2018-03-31T06:02:19.642Z,19.48
2018-03-31T06:04:48.060Z,18.55
2018-03-31T06:07:15.620Z,17.80
2018-03-31T06:09:43.183Z,19.05
2018-03-31T06:12:10.711Z,17.35
2018-03-31T06:14:39.006Z,19.58
2018-03-31T06:17:07.514Z,21.58
2018-03-31T06:19:35.073Z,19.67
2018-03-31T06:22:02.616Z,22.00
2018-03-31T06:24:30.292Z,14.68
2018-03-31T06:26:57.817Z,15.23
2018-03-31T06:29:26.124Z,12.90
2018-03-31T06:31:53.664Z,11.65
2018-03-31T06:34:21.975Z,11.30
2018-03-31T06:36:49.542Z,11.07
2018-03-31T06:39:17.109Z,10.65
2018-03-31T06:41:44.748Z,11.45
2018-03-31T06:44:12.267Z,11.68
2018-03-31T06:46:39.859Z,13.15
2018-03-31T06:49:07.398Z,12.20
2018-03-31T06:51:35.557Z,13.88
2018-03-31T06:54:03.100Z,11.70
2018-03-31T06:56:30.648Z,10.35
2018-03-31T06:58:58.171Z,10.73
2018-03-31T07:01:26.469Z,8.88
2018-03-31T07:03:54.005Z,9.23
2018-03-31T07:06:21.576Z,8.97
2018-03-31T07:08:49.135Z,8.07
2018-03-31T07:11:17.446Z,8.63
2018-03-31T07:13:45.104Z,6.80
2018-03-31T07:16:12.667Z,7.90
2018-03-31T07:18:40.257Z,6.43
2018-03-31T07:21:07.796Z,7.70
2018-03-31T07:23:35.358Z,7.10
2018-03-31T07:26:02.931Z,7.57
2018-03-31T07:28:30.492Z,7.60
2018-03-31T07:30:58.027Z,7.83
2018-03-31T07:33:26.519Z,7.40
2018-03-31T07:35:54.066Z,6.70
2018-03-31T07:38:22.384Z,8.17
2018-03-31T07:40:49.907Z,7.93
2018-03-31T07:43:17.535Z,7.97
2018-03-31T07:45:45.081Z,10.83
2018-03-31T07:48:12.615Z,7.07
2018-03-31T07:50:40.298Z,6.63
2018-03-31T07:53:07.960Z,8.33
2018-03-31T07:55:35.591Z,6.40
2018-03-31T07:58:04.080Z,6.40
2018-03-31T08:00:31.649Z,8.70
2018-03-31T08:02:59.246Z,6.70
2018-03-31T08:05:27.010Z,6.60
2018-03-31T08:07:55.361Z,7.03
2018-03-31T08:10:22.895Z,7.27
2018-03-31T08:12:51.257Z,7.80
2018-03-31T08:15:18.828Z,7.23
2018-03-31T08:17:47.123Z,6.53
2018-03-31T08:20:14.688Z,7.03
2018-03-31T08:22:42.248Z,7.10
2018-03-31T08:25:09.852Z,7.00
2018-03-31T08:27:37.389Z,7.10
2018-03-31T08:30:04.967Z,6.80
2018-03-31T08:32:32.514Z,6.10
2018-03-31T08:35:00.455Z,7.33
2018-03-31T08:37:28.760Z,6.43
2018-03-31T08:39:56.316Z,6.93
2018-03-31T08:42:23.854Z,6.70
2018-03-31T08:44:52.189Z,7.00
2018-03-31T08:47:19.925Z,6.63
2018-03-31T08:49:47.463Z,6.80
2018-03-31T08:52:15.052Z,6.63
2018-03-31T08:54:42.608Z,6.70
2018-03-31T08:57:10.174Z,7.27
2018-03-31T08:59:37.721Z,7.57
2018-03-31T09:02:05.282Z,7.27
2018-03-31T09:04:32.810Z,7.27
2018-03-31T09:07:00.724Z,6.47
2018-03-31T09:09:28.294Z,6.77
2018-03-31T09:11:55.868Z,7.20
2018-03-31T09:14:23.391Z,6.77
2018-03-31T09:16:50.910Z,7.07
2018-03-31T09:19:19.257Z,6.87
2018-03-31T09:21:47.007Z,6.10
2018-03-31T09:24:14.594Z,6.27
2018-03-31T09:26:42.258Z,5.50
2018-03-31T09:29:09.837Z,5.60
2018-03-31T09:31:37.375Z,6.57
2018-03-31T09:34:05.022Z,6.60
2018-03-31T09:36:32.724Z,6.20
2018-03-31T09:39:00.270Z,5.97
2018-03-31T09:41:27.911Z,5.97
2018-03-31T09:43:55.500Z,5.73
2018-03-31T09:46:23.039Z,6.13
2018-03-31T09:48:50.655Z,5.63
2018-03-31T09:51:18.357Z,4.57
2018-03-31T09:53:46.011Z,3.80
2018-03-31T09:56:13.574Z,3.63
2018-03-31T09:58:41.101Z,5.13
2018-03-31T10:01:09.433Z,6.90
2018-03-31T10:03:37.091Z,4.37
2018-03-31T10:06:04.724Z,4.90
2018-03-31T10:08:33.053Z,5.60
2018-03-31T10:11:00.594Z,4.23
2018-03-31T10:13:28.251Z,4.60
2018-03-31T10:15:55.780Z,5.00
2018-03-31T10:18:24.093Z,4.57
2018-03-31T10:20:51.644Z,5.00
2018-03-31T10:23:20.153Z,4.33
2018-03-31T10:25:48.453Z,3.70
2018-03-31T10:28:16.022Z,3.57
2018-03-31T10:30:43.594Z,5.53
2018-03-31T10:33:11.209Z,3.53
2018-03-31T10:35:38.803Z,3.50
2018-03-31T10:38:06.336Z,3.07
2018-03-31T10:40:34.647Z,4.33
2018-03-31T10:43:02.985Z,2.53
2018-03-31T10:45:31.289Z,3.37
2018-03-31T10:47:58.819Z,2.93
2018-03-31T10:50:26.389Z,2.33
2018-03-31T10:52:54.828Z,3.20
2018-03-31T10:55:22.375Z,3.67
2018-03-31T10:57:49.918Z,2.80
2018-03-31T11:00:17.506Z,3.00
2018-03-31T11:02:45.108Z,2.30
2018-03-31T11:05:12.645Z,3.57
2018-03-31T11:07:40.231Z,2.70
2018-03-31T11:10:07.757Z,2.63
2018-03-31T11:12:35.311Z,2.10
2018-03-31T11:15:02.875Z,4.00
2018-03-31T11:17:30.420Z,3.77
2018-03-31T11:19:57.967Z,2.80
2018-03-31T11:22:25.526Z,3.73
2018-03-31T11:24:53.083Z,2.20
2018-03-31T11:27:21.388Z,3.73
2018-03-31T11:29:49.019Z,1.80
2018-03-31T11:32:16.604Z,3.00
2018-03-31T11:34:44.177Z,2.40
2018-03-31T11:37:11.832Z,2.37
2018-03-31T11:39:39.444Z,3.60
2018-03-31T11:42:07.080Z,3.03
2018-03-31T11:44:35.183Z,4.53
2018-03-31T11:47:02.729Z,2.27
2018-03-31T11:49:30.261Z,3.00
2018-03-31T11:51:57.834Z,3.73
2018-03-31T11:54:26.289Z,3.20
2018-03-31T11:56:53.911Z,3.07
2018-03-31T11:59:21.525Z,3.40
2018-03-31T12:01:49.878Z,3.40
2018-03-31T12:04:17.431Z,5.07
2018-03-31T12:06:45.079Z,2.17
2018-03-31T12:09:12.617Z,3.00
2018-03-31T12:11:40.927Z,3.83
2018-03-31T12:14:08.457Z,1.47
2018-03-31T12:16:35.988Z,2.47
2018-03-31T12:19:03.666Z,22.27
2018-03-31T12:21:34.092Z,5.00
2018-03-31T12:24:01.816Z,3.70
2018-03-31T12:26:29.418Z,6.60
2018-03-31T12:28:56.992Z,4.90
2018-03-31T12:31:24.548Z,3.77
2018-03-31T12:33:52.150Z,3.90
2018-03-31T12:36:19.792Z,2.53
2018-03-31T12:38:48.140Z,3.27
2018-03-31T12:41:15.743Z,3.87
2018-03-31T12:43:44.035Z,5.13
2018-03-31T12:46:11.585Z,3.13
2018-03-31T12:48:39.880Z,4.03
2018-03-31T12:51:07.455Z,4.67
2018-03-31T12:53:35.029Z,3.30
2018-03-31T12:56:02.635Z,3.63
2018-03-31T12:58:30.938Z,4.70
2018-03-31T13:00:58.525Z,3.60
2018-03-31T13:03:26.054Z,3.83
2018-03-31T13:05:54.351Z,3.70
2018-03-31T13:08:21.920Z,4.43
2018-03-31T13:10:49.484Z,5.07
2018-03-31T13:13:17.175Z,6.03
2018-03-31T13:15:44.903Z,5.00
2018-03-31T13:18:12.492Z,4.17
2018-03-31T13:20:40.093Z,4.00
2018-03-31T13:23:08.411Z,3.57
2018-03-31T13:25:35.976Z,5.23
2018-03-31T13:28:03.513Z,2.20
2018-03-31T13:30:31.996Z,4.33
2018-03-31T13:33:00.487Z,2.63
2018-03-31T13:35:28.022Z,5.90
2018-03-31T13:37:55.568Z,4.90
2018-03-31T13:40:23.092Z,10.63
2018-03-31T13:42:50.615Z,8.10
2018-03-31T13:45:18.135Z,4.23
2018-03-31T13:47:45.676Z,2.97
2018-03-31T13:50:13.220Z,3.03
2018-03-31T13:52:40.750Z,4.57
2018-03-31T13:55:09.060Z,4.07
2018-03-31T13:57:36.644Z,9.40
2018-03-31T14:00:04.278Z,5.33
2018-03-31T14:02:32.589Z,3.53
2018-03-31T14:05:00.128Z,4.30
2018-03-31T14:07:27.687Z,3.10
2018-03-31T14:09:55.258Z,4.90
2018-03-31T14:12:22.783Z,4.20
2018-03-31T14:14:50.316Z,3.10
2018-03-31T14:17:17.859Z,7.13
2018-03-31T14:19:45.411Z,4.63
2018-03-31T14:22:12.942Z,4.17
2018-03-31T14:24:41.251Z,3.60
2018-03-31T14:27:08.779Z,4.77
2018-03-31T14:29:37.091Z,4.67
2018-03-31T14:32:04.625Z,5.47
2018-03-31T14:34:32.979Z,4.43
2018-03-31T14:37:00.593Z,6.50
2018-03-31T14:39:28.252Z,5.97
2018-03-31T14:41:55.831Z,2.80
2018-03-31T14:44:23.376Z,3.63
2018-03-31T14:46:50.892Z,4.57
2018-03-31T14:49:18.434Z,5.30
2018-03-31T14:51:45.998Z,5.00
2018-03-31T14:54:13.559Z,3.77
2018-03-31T14:56:41.091Z,4.13
2018-03-31T14:59:08.649Z,5.90
2018-03-31T15:01:36.179Z,3.93
2018-03-31T15:04:04.578Z,9.90
2018-03-31T15:06:32.136Z,5.17
2018-03-31T15:09:00.451Z,5.10
2018-03-31T15:11:28.007Z,4.27
2018-03-31T15:13:55.556Z,3.33
2018-03-31T15:16:23.092Z,3.67
2018-03-31T15:18:51.389Z,2.87
2018-03-31T15:21:18.920Z,4.10
2018-03-31T15:23:47.384Z,3.60
2018-03-31T15:26:14.973Z,3.43
2018-03-31T15:28:43.285Z,4.73
2018-03-31T15:31:10.820Z,4.37
2018-03-31T15:33:39.140Z,3.60
2018-03-31T15:36:06.667Z,2.00
2018-03-31T15:38:34.251Z,3.10
2018-03-31T15:41:01.792Z,4.97
2018-03-31T15:43:30.115Z,9.27
2018-03-31T15:45:57.680Z,5.30
2018-03-31T15:48:25.233Z,3.93
2018-03-31T15:50:52.764Z,4.13
2018-03-31T15:53:20.507Z,2.80
2018-03-31T15:55:48.915Z,2.87
2018-03-31T15:58:16.462Z,4.63
2018-03-31T16:00:44.020Z,9.03
2018-03-31T16:03:11.575Z,8.03
2018-03-31T16:05:39.854Z,5.40
2018-03-31T16:08:08.159Z,4.77
2018-03-31T16:10:35.705Z,5.20
2018-03-31T16:13:03.263Z,6.60
2018-03-31T16:15:31.567Z,7.20
2018-03-31T16:17:59.112Z,3.47
2018-03-31T16:20:26.635Z,4.00
2018-03-31T16:22:55.746Z,3.80
2018-03-31T16:25:24.041Z,2.90
2018-03-31T16:27:51.614Z,5.07
2018-03-31T16:30:19.216Z,4.60
2018-03-31T16:32:46.744Z,5.57
2018-03-31T16:35:14.315Z,5.97
2018-03-31T16:37:41.842Z,3.30
2018-03-31T16:40:10.247Z,5.37
2018-03-31T16:42:37.776Z,3.80
2018-03-31T16:45:05.331Z,5.73
2018-03-31T16:47:33.650Z,6.03
2018-03-31T16:50:01.212Z,5.90
2018-03-31T16:52:28.775Z,3.90
2018-03-31T16:54:56.357Z,4.07
2018-03-31T16:57:23.904Z,3.40
2018-03-31T16:59:51.562Z,8.77
2018-03-31T17:02:19.326Z,3.70
2018-03-31T17:04:46.850Z,4.73
2018-03-31T17:07:15.186Z,2.70
2018-03-31T17:09:42.792Z,3.73
2018-03-31T17:12:11.125Z,4.77
2018-03-31T17:14:38.721Z,5.07
2018-03-31T17:17:07.101Z,6.33
2018-03-31T17:19:34.734Z,4.03
2018-03-31T17:22:02.341Z,6.63
2018-03-31T17:24:30.803Z,4.90
2018-03-31T17:26:58.400Z,5.50
2018-03-31T17:29:25.960Z,6.57
2018-03-31T17:31:53.506Z,5.33
2018-03-31T17:34:21.072Z,4.20
2018-03-31T17:36:48.707Z,5.50
2018-03-31T17:39:16.213Z,10.00
2018-03-31T17:41:43.783Z,5.10
2018-03-31T17:44:11.365Z,4.60
2018-03-31T17:46:38.959Z,5.80
2018-03-31T17:49:06.548Z,5.23
2018-03-31T17:51:34.151Z,4.37
2018-03-31T17:54:11.747Z,7.55
2018-03-31T17:56:40.107Z,4.28
2018-03-31T17:59:08.603Z,3.75
2018-03-31T18:01:36.289Z,6.80
2018-03-31T18:04:04.839Z,8.57
2018-03-31T18:06:33.268Z,7.45
2018-03-31T18:09:00.823Z,20.98
2018-03-31T18:11:28.413Z,11.40
2018-03-31T18:13:56.004Z,6.47
2018-03-31T18:16:23.569Z,11.47
2018-03-31T18:18:51.203Z,7.20
2018-03-31T18:21:18.782Z,5.27
2018-03-31T18:23:46.451Z,11.32
2018-03-31T18:26:14.033Z,9.13
2018-03-31T18:28:42.396Z,10.90
2018-03-31T18:31:10.003Z,7.60
2018-03-31T18:33:37.572Z,6.80
2018-03-31T18:36:05.147Z,7.15
2018-03-31T18:38:32.736Z,7.37
2018-03-31T18:41:00.431Z,8.60
2018-03-31T18:43:28.760Z,12.23
2018-03-31T18:45:56.362Z,5.37
2018-03-31T18:48:23.938Z,9.40
2018-03-31T18:50:51.529Z,7.55
2018-03-31T18:53:19.887Z,5.12
2018-03-31T18:55:47.457Z,7.68
2018-03-31T18:58:15.095Z,7.63
2018-03-31T19:00:43.429Z,5.93
2018-03-31T19:03:10.971Z,7.13
2018-03-31T19:05:38.527Z,6.28
2018-03-31T19:08:06.192Z,4.90
2018-03-31T19:10:33.732Z,7.65
2018-03-31T19:13:01.323Z,7.32
2018-03-31T19:15:29.595Z,6.77
2018-03-31T19:17:57.160Z,4.25
2018-03-31T19:20:24.711Z,5.40
2018-03-31T19:22:52.277Z,4.43
2018-03-31T19:25:25.284Z,6.03
2018-03-31T19:27:52.869Z,3.28
2018-03-31T19:30:20.545Z,2.80
2018-03-31T19:32:48.407Z,4.40
2018-03-31T19:35:15.991Z,5.93
2018-03-31T19:37:43.545Z,3.25
2018-03-31T19:40:11.297Z,3.10
2018-03-31T19:42:38.870Z,2.25
2018-03-31T19:45:06.576Z,2.45
2018-03-31T19:47:34.167Z,4.05
2018-03-31T19:50:01.714Z,3.50
2018-03-31T19:52:29.523Z,5.60
2018-03-31T19:54:57.097Z,6.57
2018-03-31T19:57:24.654Z,5.25
2018-03-31T19:59:52.188Z,2.33
2018-03-31T20:02:19.911Z,2.87
2018-03-31T20:04:57.913Z,5.20
2018-03-31T20:07:25.704Z,3.97
2018-03-31T20:09:53.315Z,3.53
2018-03-31T20:12:21.741Z,3.40
2018-03-31T20:14:49.323Z,3.28
2018-03-31T20:17:22.384Z,2.83
2018-03-31T20:19:49.970Z,3.95
2018-03-31T20:22:17.582Z,5.35
2018-03-31T20:24:51.606Z,4.70
2018-03-31T20:27:23.032Z,2.60
2018-03-31T20:29:51.418Z,5.72
2018-03-31T20:32:19.133Z,2.83
2018-03-31T20:34:46.695Z,3.72
2018-03-31T20:37:14.739Z,6.75
2018-03-31T20:39:47.048Z,5.10
2018-03-31T20:42:14.689Z,6.35
2018-03-31T20:44:45.616Z,6.12
2018-03-31T20:47:13.239Z,8.05
2018-03-31T20:49:41.559Z,4.80
2018-03-31T20:52:09.153Z,7.62
2018-03-31T20:54:36.682Z,8.75
2018-03-31T20:57:04.287Z,6.15
2018-03-31T20:59:31.877Z,7.75
2018-03-31T21:01:59.487Z,7.15
2018-03-31T21:04:27.088Z,13.93
2018-03-31T21:06:54.942Z,7.30
2018-03-31T21:09:22.467Z,6.97
2018-03-31T21:11:50.810Z,8.10
2018-03-31T21:14:18.358Z,11.95
2018-03-31T21:16:45.914Z,8.55
2018-03-31T21:19:17.971Z,5.50
2018-03-31T21:21:45.543Z,7.78
2018-03-31T21:24:14.011Z,7.85
2018-03-31T21:26:44.552Z,7.93
2018-03-31T21:29:12.122Z,5.28
2018-03-31T21:31:42.379Z,7.90
2018-03-31T21:34:12.361Z,7.80
2018-03-31T21:36:39.887Z,6.95
2018-03-31T21:39:07.603Z,6.47
2018-03-31T21:41:35.125Z,3.87
2018-03-31T21:44:03.440Z,4.40
2018-03-31T21:46:31.055Z,9.52
2018-03-31T21:48:59.359Z,7.22
2018-03-31T21:51:26.933Z,5.75
2018-03-31T21:53:54.471Z,7.50
2018-03-31T21:56:22.787Z,5.80
2018-03-31T21:58:50.362Z,7.50
2018-03-31T22:01:17.978Z,6.00
2018-03-31T22:03:46.314Z,5.20
2018-03-31T22:06:13.879Z,5.20
2018-03-31T22:08:41.411Z,6.62
2018-03-31T22:11:09.040Z,4.40
2018-03-31T22:13:42.087Z,5.28
2018-03-31T22:16:09.708Z,5.60
2018-03-31T22:18:39.543Z,4.43
2018-03-31T22:21:09.068Z,4.40
2018-03-31T22:23:36.593Z,7.72
2018-03-31T22:26:04.166Z,5.43
2018-03-31T22:28:31.691Z,4.93
2018-03-31T22:31:00.055Z,5.50
2018-03-31T22:33:27.605Z,5.22
2018-03-31T22:35:55.128Z,5.20
2018-03-31T22:38:22.750Z,4.68
2018-03-31T22:40:52.190Z,4.90
2018-03-31T22:43:21.424Z,4.20
2018-03-31T22:45:48.971Z,5.35
2018-03-31T22:48:16.575Z,5.18
2018-03-31T22:50:44.094Z,5.82
2018-03-31T22:53:11.746Z,5.20
2018-03-31T22:55:39.389Z,4.20
2018-03-31T23:00:41.151Z,5.40
2018-03-31T23:03:10.348Z,4.70
2018-03-31T23:05:38.641Z,5.55
2018-03-31T23:08:06.937Z,4.50
2018-03-31T23:10:35.238Z,4.12
2018-03-31T23:13:02.835Z,4.47
2018-03-31T23:15:30.415Z,4.12
2018-03-31T23:17:58.715Z,5.22
2018-03-31T23:20:26.250Z,3.65
2018-03-31T23:22:54.555Z,5.28
2018-03-31T23:25:22.092Z,4.62
2018-03-31T23:27:50.423Z,4.47
2018-03-31T23:30:17.966Z,6.15
2018-03-31T23:32:45.524Z,6.53
2018-03-31T23:35:13.054Z,5.93
2018-03-31T23:37:41.342Z,5.45
2018-03-31T23:40:08.915Z,5.97
2018-03-31T23:42:36.484Z,4.95
2018-03-31T23:45:04.007Z,5.00
2018-03-31T23:47:31.558Z,5.22
2018-03-31T23:49:59.085Z,4.62
2018-03-31T23:52:26.628Z,5.53
2018-03-31T23:54:54.181Z,5.87
2018-03-31T23:57:22.500Z,6.75
2018-03-31T23:59:50.021Z,4.90
